createdAt,value
2018-12-05T00:02:31.042Z,79.00
2018-12-05T00:05:04.822Z,78.90
2018-12-05T00:07:38.513Z,78.80
2018-12-05T00:10:14.238Z,78.80
2018-12-05T00:12:48.539Z,78.50
2018-12-05T00:15:22.911Z,78.00
2018-12-05T00:17:56.980Z,78.00
2018-12-05T00:20:30.890Z,77.50
2018-12-05T00:23:04.724Z,77.30
2018-12-05T00:25:38.649Z,77.10
2018-12-05T00:28:13.803Z,76.90
2018-12-05T00:30:49.006Z,76.60
2018-12-05T00:33:24.151Z,76.90
2018-12-05T00:35:58.691Z,76.20
2018-12-05T00:38:34.211Z,75.40
2018-12-05T00:41:09.371Z,75.50
2018-12-05T00:43:43.363Z,75.50
2018-12-05T00:46:17.579Z,75.70
2018-12-05T00:48:52.275Z,75.30
2018-12-05T00:51:27.137Z,75.10
2018-12-05T00:54:01.158Z,75.20
2018-12-05T00:56:36.313Z,74.90
2018-12-05T00:59:10.228Z,73.50
2018-12-05T01:01:46.339Z,73.70
2018-12-05T01:04:21.386Z,72.50
2018-12-05T01:06:55.664Z,71.80
2018-12-05T01:09:30.178Z,71.40
2018-12-05T01:12:03.935Z,71.00
2018-12-05T01:14:38.029Z,71.10
2018-12-05T01:17:13.056Z,71.40
2018-12-05T01:19:47.033Z,71.40
2018-12-05T01:22:20.881Z,70.70
2018-12-05T01:24:56.184Z,69.50
2018-12-05T01:27:30.233Z,69.30
2018-12-05T01:30:03.846Z,69.00
2018-12-05T01:32:37.914Z,68.00
2018-12-05T01:35:11.852Z,68.30
2018-12-05T01:37:45.925Z,68.70
2018-12-05T01:40:23.041Z,67.70
2018-12-05T01:42:57.195Z,66.70
2018-12-05T01:45:31.660Z,66.90
2018-12-05T01:48:06.673Z,64.60
2018-12-05T01:50:40.737Z,64.00
2018-12-05T01:53:15.843Z,64.70
2018-12-05T01:55:51.082Z,64.10
2018-12-05T01:58:26.434Z,64.30
2018-12-05T02:01:01.274Z,63.70
2018-12-05T02:03:36.634Z,63.10
2018-12-05T02:06:13.196Z,63.10
2018-12-05T02:08:46.999Z,62.30
2018-12-05T02:11:21.106Z,62.10
2018-12-05T02:13:55.259Z,61.70
2018-12-05T02:16:29.421Z,62.40
2018-12-05T02:19:04.526Z,62.00
2018-12-05T02:21:38.095Z,61.50
2018-12-05T02:24:13.191Z,61.20
2018-12-05T02:26:48.084Z,60.80
2018-12-05T02:29:22.208Z,60.40
2018-12-05T02:31:56.438Z,60.40
2018-12-05T02:34:30.472Z,59.80
2018-12-05T02:37:04.498Z,59.00
2018-12-05T02:39:38.908Z,58.20
2018-12-05T02:42:12.951Z,57.50
2018-12-05T02:44:48.306Z,58.20
2018-12-05T02:47:22.593Z,58.50
2018-12-05T02:49:57.655Z,58.50
2018-12-05T02:52:31.382Z,58.40
2018-12-05T02:55:05.404Z,57.60
2018-12-05T02:57:39.433Z,57.40
2018-12-05T03:00:16.087Z,57.40
2018-12-05T03:02:51.864Z,56.30
2018-12-05T03:05:26.111Z,55.60
2018-12-05T03:08:00.056Z,56.20
2018-12-05T03:10:34.862Z,54.60
2018-12-05T03:13:09.725Z,53.70
2018-12-05T03:15:43.737Z,54.40
2018-12-05T03:18:17.505Z,54.50
2018-12-05T03:20:51.726Z,54.30
2018-12-05T03:23:25.491Z,54.60
2018-12-05T03:25:59.620Z,55.10
2018-12-05T03:28:33.840Z,55.60
2018-12-05T03:31:13.109Z,55.30
2018-12-05T03:33:47.941Z,55.10
2018-12-05T03:36:22.721Z,53.30
2018-12-05T03:38:56.828Z,52.70
2018-12-05T03:41:31.166Z,51.80
2018-12-05T03:44:06.187Z,52.70
2018-12-05T03:46:42.167Z,52.60
2018-12-05T03:49:16.237Z,52.20
2018-12-05T03:51:51.817Z,52.40
2018-12-05T03:54:26.011Z,52.30
2018-12-05T03:57:01.059Z,52.60
2018-12-05T03:59:35.810Z,51.30
2018-12-05T04:02:10.717Z,52.00
2018-12-05T04:04:45.794Z,53.30
2018-12-05T04:07:19.932Z,53.90
2018-12-05T04:09:53.606Z,54.60
2018-12-05T04:12:27.832Z,55.40
2018-12-05T04:15:02.738Z,54.90
2018-12-05T04:17:37.275Z,55.10
2018-12-05T04:20:15.252Z,55.10
2018-12-05T04:22:49.921Z,55.40
2018-12-05T04:25:25.114Z,55.60
2018-12-05T04:27:59.288Z,55.00
2018-12-05T04:30:34.792Z,55.20
2018-12-05T04:33:11.177Z,55.50
2018-12-05T04:35:45.567Z,55.20
2018-12-05T04:38:20.596Z,55.40
2018-12-05T04:40:54.919Z,55.30
2018-12-05T04:43:30.422Z,55.40
2018-12-05T04:46:05.912Z,55.60
2018-12-05T04:48:41.578Z,55.90
2018-12-05T04:51:16.766Z,56.10
2018-12-05T04:53:52.185Z,56.60
2018-12-05T04:56:26.242Z,57.30
2018-12-05T04:59:01.549Z,57.70
2018-12-05T05:01:38.259Z,57.90
2018-12-05T05:04:15.028Z,57.80
2018-12-05T05:06:54.033Z,57.60
2018-12-05T05:09:29.253Z,57.80
2018-12-05T05:12:04.561Z,57.70
2018-12-05T05:14:38.673Z,57.90
2018-12-05T05:17:18.940Z,57.60
2018-12-05T05:19:53.096Z,57.20
2018-12-05T05:22:31.810Z,57.20
2018-12-05T05:25:10.176Z,57.80
2018-12-05T05:27:46.013Z,57.20
2018-12-05T05:30:20.199Z,57.30
2018-12-05T05:32:55.361Z,57.60
2018-12-05T05:35:29.475Z,57.70
2018-12-05T05:38:03.545Z,57.60
2018-12-05T05:40:37.542Z,57.50
2018-12-05T05:43:15.723Z,57.20
2018-12-05T05:45:49.495Z,57.10
2018-12-05T05:48:23.891Z,56.90
2018-12-05T05:50:58.396Z,56.60
2018-12-05T05:53:32.187Z,56.30
2018-12-05T05:56:06.375Z,55.80
2018-12-05T05:58:40.447Z,55.70
2018-12-05T06:01:16.073Z,56.00
2018-12-05T06:03:51.408Z,55.80
2018-12-05T06:06:26.563Z,55.80
2018-12-05T06:09:00.581Z,55.70
2018-12-05T06:11:36.484Z,57.10
2018-12-05T06:14:10.362Z,57.90
2018-12-05T06:16:44.620Z,57.90
2018-12-05T06:19:19.866Z,58.20
2018-12-05T06:21:54.149Z,58.20
2018-12-05T06:24:28.193Z,58.10
2018-12-05T06:27:03.575Z,58.00
2018-12-05T06:29:41.293Z,58.20
2018-12-05T06:32:17.558Z,58.40
2018-12-05T06:34:51.687Z,58.30
2018-12-05T06:37:25.606Z,58.40
2018-12-05T06:40:00.366Z,58.20
2018-12-05T06:42:34.473Z,58.00
2018-12-05T06:45:09.979Z,57.90
2018-12-05T06:47:43.743Z,57.60
2018-12-05T06:50:17.665Z,57.70
2018-12-05T06:52:52.238Z,57.20
2018-12-05T06:55:26.125Z,57.20
2018-12-05T06:58:01.053Z,57.10
2018-12-05T07:00:34.951Z,57.20
2018-12-05T07:03:09.137Z,57.30
2018-12-05T07:05:44.239Z,57.50
2018-12-05T07:08:20.158Z,57.70
2018-12-05T07:10:54.010Z,57.70
2018-12-05T07:13:27.988Z,57.80
2018-12-05T07:16:04.606Z,57.80
2018-12-05T07:18:39.228Z,57.80
2018-12-05T07:21:12.886Z,57.80
2018-12-05T07:23:47.304Z,58.00
2018-12-05T07:26:21.332Z,57.90
2018-12-05T07:28:55.415Z,57.90
2018-12-05T07:31:30.641Z,58.00
2018-12-05T07:34:05.240Z,58.40
2018-12-05T07:36:39.648Z,58.30
2018-12-05T07:39:14.155Z,58.40
2018-12-05T07:41:48.030Z,58.20
2018-12-05T07:44:22.355Z,58.40
2018-12-05T07:46:56.479Z,58.10
2018-12-05T07:49:32.225Z,57.90
2018-12-05T07:52:06.725Z,57.90
2018-12-05T07:54:41.421Z,57.80
2018-12-05T07:57:16.035Z,57.70
2018-12-05T07:59:50.368Z,58.60
2018-12-05T08:02:24.901Z,57.70
2018-12-05T08:04:59.884Z,57.70
2018-12-05T08:07:33.077Z,57.80
2018-12-05T08:10:08.287Z,57.80
2018-12-05T08:12:52.508Z,57.90
2018-12-05T08:15:26.754Z,57.60
2018-12-05T08:18:02.224Z,57.40
2018-12-05T08:20:37.088Z,58.10
2018-12-05T08:23:12.312Z,57.30
2018-12-05T08:25:46.095Z,57.20
2018-12-05T08:28:22.995Z,57.40
2018-12-05T08:30:57.421Z,57.30
2018-12-05T08:33:31.354Z,56.90
2018-12-05T08:36:05.845Z,56.60
2018-12-05T08:38:44.089Z,56.60
2018-12-05T08:41:19.846Z,56.80
2018-12-05T08:43:54.460Z,56.70
2018-12-05T08:46:28.925Z,56.70
2018-12-05T08:51:43.136Z,56.60
2018-12-05T08:54:21.056Z,56.60
2018-12-05T08:56:58.517Z,56.70
2018-12-05T08:59:36.998Z,56.70
2018-12-05T09:02:12.611Z,56.80
2018-12-05T09:04:47.124Z,56.70
2018-12-05T09:07:21.156Z,56.70
2018-12-05T09:09:54.756Z,56.70
2018-12-05T09:12:29.988Z,56.80
2018-12-05T09:15:04.989Z,56.70
2018-12-05T09:17:38.995Z,56.70
2018-12-05T09:20:13.226Z,56.80
2018-12-05T09:22:47.191Z,56.90
2018-12-05T09:25:20.935Z,57.10
2018-12-05T09:27:55.414Z,57.20
2018-12-05T09:30:29.790Z,57.30
2018-12-05T09:33:04.167Z,57.30
2018-12-05T09:35:38.275Z,57.40
2018-12-05T09:38:13.202Z,57.40
2018-12-05T09:40:47.662Z,57.40
2018-12-05T09:43:21.478Z,57.50
2018-12-05T09:45:56.813Z,57.70
2018-12-05T09:48:31.038Z,57.80
2018-12-05T09:51:06.443Z,57.80
2018-12-05T09:53:40.426Z,57.90
2018-12-05T09:56:15.341Z,58.10
2018-12-05T09:58:49.450Z,58.20
2018-12-05T10:01:23.960Z,58.40
2018-12-05T10:03:58.200Z,58.50
2018-12-05T10:06:33.045Z,58.50
2018-12-05T10:09:09.214Z,58.70
2018-12-05T10:11:44.881Z,58.60
2018-12-05T10:14:19.884Z,58.70
2018-12-05T10:16:54.232Z,58.80
2018-12-05T10:19:28.157Z,58.90
2018-12-05T10:22:02.990Z,59.00
2018-12-05T10:24:36.657Z,59.10
2018-12-05T10:27:11.813Z,59.10
2018-12-05T10:29:45.890Z,59.10
2018-12-05T10:32:20.817Z,59.20
2018-12-05T10:34:55.648Z,59.20
2018-12-05T10:37:29.958Z,59.20
2018-12-05T10:40:04.046Z,59.30
2018-12-05T10:42:38.297Z,59.20
2018-12-05T10:45:12.369Z,59.50
2018-12-05T10:47:46.853Z,59.50
2018-12-05T10:50:20.929Z,59.70
2018-12-05T10:52:54.726Z,59.60
2018-12-05T10:55:30.379Z,59.60
2018-12-05T10:58:04.120Z,59.60
2018-12-05T11:00:42.102Z,59.50
2018-12-05T11:03:20.992Z,59.50
2018-12-05T11:06:00.693Z,59.60
2018-12-05T11:08:42.389Z,59.70
2018-12-05T11:11:20.413Z,60.00
2018-12-05T11:13:58.456Z,60.00
2018-12-05T11:16:38.161Z,60.00
2018-12-05T11:19:16.389Z,60.10
2018-12-05T11:21:54.278Z,60.40
2018-12-05T11:24:32.735Z,60.30
2018-12-05T11:27:06.966Z,60.50
2018-12-05T11:30:11.861Z,60.40
2018-12-05T11:32:46.563Z,60.40
2018-12-05T11:35:21.726Z,60.40
2018-12-05T11:37:56.483Z,59.80
2018-12-05T11:40:30.489Z,60.80
2018-12-05T11:43:04.740Z,61.00
2018-12-05T11:45:38.512Z,61.00
2018-12-05T11:48:12.699Z,61.10
2018-12-05T11:50:46.793Z,61.20
2018-12-05T11:53:20.986Z,61.50
2018-12-05T11:55:54.958Z,61.50
2018-12-05T11:58:29.491Z,61.50
2018-12-05T12:01:03.543Z,61.60
2018-12-05T12:03:37.231Z,61.70
2018-12-05T12:06:11.971Z,62.80
2018-12-05T12:08:46.052Z,62.00
2018-12-05T12:11:20.299Z,62.20
2018-12-05T12:13:54.445Z,62.20
2018-12-05T12:16:29.296Z,62.10
2018-12-05T12:19:04.640Z,62.20
2018-12-05T12:21:38.726Z,62.30
2018-12-05T12:24:12.793Z,62.40
2018-12-05T12:26:47.026Z,62.40
2018-12-05T12:29:22.533Z,62.60
2018-12-05T12:31:56.476Z,62.80
2018-12-05T12:34:30.203Z,62.80
2018-12-05T12:37:06.867Z,62.80
2018-12-05T12:39:44.507Z,62.90
2018-12-05T12:42:18.716Z,62.30
2018-12-05T12:44:54.373Z,63.10
2018-12-05T12:47:29.630Z,63.20
2018-12-05T12:50:04.264Z,63.20
2018-12-05T12:52:38.985Z,64.30
2018-12-05T12:55:13.564Z,63.40
2018-12-05T12:57:48.037Z,63.50
2018-12-05T13:00:22.443Z,63.50
2018-12-05T13:02:56.274Z,63.60
2018-12-05T13:05:30.349Z,63.70
2018-12-05T13:08:04.399Z,63.80
2018-12-05T13:10:38.855Z,64.00
2018-12-05T13:13:12.627Z,64.10
2018-12-05T13:15:46.614Z,64.10
2018-12-05T13:18:20.730Z,64.30
2018-12-05T13:20:55.896Z,64.30
2018-12-05T13:23:29.478Z,64.40
2018-12-05T13:26:03.442Z,64.40
2018-12-05T13:28:37.616Z,64.60
2018-12-05T13:31:12.210Z,64.80
2018-12-05T13:33:46.255Z,64.80
2018-12-05T13:36:19.935Z,64.80
2018-12-05T13:38:53.541Z,64.80
2018-12-05T13:41:28.268Z,65.00
2018-12-05T13:44:01.803Z,65.10
2018-12-05T13:46:35.407Z,65.20
2018-12-05T13:49:09.389Z,65.30
2018-12-05T13:51:42.892Z,65.30
2018-12-05T13:54:17.581Z,65.40
2018-12-05T13:56:51.365Z,65.50
2018-12-05T13:59:25.268Z,65.40
2018-12-05T14:02:01.405Z,65.40
2018-12-05T14:04:37.800Z,65.50
2018-12-05T14:07:15.539Z,65.60
2018-12-05T14:09:51.795Z,65.60
2018-12-05T14:12:31.573Z,65.70
2018-12-05T14:15:05.581Z,65.60
2018-12-05T14:17:39.196Z,65.80
2018-12-05T14:20:13.797Z,65.90
2018-12-05T14:22:48.466Z,66.00
2018-12-05T14:25:22.609Z,66.00
2018-12-05T14:27:57.155Z,66.00
2018-12-05T14:30:30.994Z,66.10
2018-12-05T14:33:05.908Z,66.10
2018-12-05T14:35:39.784Z,66.30
2018-12-05T14:41:30.826Z,66.40
2018-12-05T14:44:04.982Z,66.40
2018-12-05T14:46:39.894Z,66.40
2018-12-05T14:49:13.744Z,66.40
2018-12-05T14:51:48.634Z,66.40
2018-12-05T14:54:23.096Z,66.30
2018-12-05T14:56:57.791Z,66.30
2018-12-05T14:59:33.235Z,66.20
2018-12-05T15:02:07.250Z,66.30
2018-12-05T15:04:44.240Z,66.40
2018-12-05T15:07:18.997Z,66.40
2018-12-05T15:09:52.548Z,66.40
2018-12-05T15:12:26.547Z,66.50
2018-12-05T15:15:00.078Z,66.40
2018-12-05T15:17:34.871Z,66.50
2018-12-05T15:20:09.453Z,66.60
2018-12-05T15:22:44.171Z,66.60
2018-12-05T15:25:19.833Z,66.60
2018-12-05T15:27:53.623Z,66.40
2018-12-05T15:30:28.901Z,66.60
2018-12-05T15:33:03.885Z,66.70
2018-12-05T15:35:37.494Z,66.70
2018-12-05T15:38:12.615Z,66.80
2018-12-05T15:40:50.873Z,66.80
2018-12-05T15:43:24.989Z,66.70
2018-12-05T15:46:01.107Z,66.90
2018-12-05T15:48:35.227Z,66.80
2018-12-05T15:51:10.217Z,66.80
2018-12-05T15:53:44.024Z,66.80
2018-12-05T15:56:17.660Z,66.90
2018-12-05T15:59:01.385Z,66.90
2018-12-05T16:01:38.122Z,66.90
2018-12-05T16:04:13.092Z,66.90
2018-12-05T16:06:48.543Z,67.10
2018-12-05T16:09:22.663Z,67.10
2018-12-05T16:11:57.694Z,67.20
2018-12-05T16:14:31.655Z,67.30
2018-12-05T16:17:05.292Z,67.30
2018-12-05T16:19:40.399Z,67.30
2018-12-05T16:22:14.497Z,67.40
2018-12-05T16:24:48.878Z,67.50
2018-12-05T16:27:24.321Z,67.50
2018-12-05T16:29:59.295Z,67.30
2018-12-05T16:32:32.942Z,67.40
2018-12-05T16:35:06.988Z,68.40
2018-12-05T16:37:40.854Z,67.90
2018-12-05T16:40:14.512Z,67.80
2018-12-05T16:42:48.939Z,67.90
2018-12-05T16:45:23.615Z,68.00
2018-12-05T16:47:58.154Z,68.30
2018-12-05T16:50:33.187Z,68.20
2018-12-05T16:53:07.031Z,68.30
2018-12-05T16:55:40.890Z,68.20
2018-12-05T16:58:14.644Z,68.00
2018-12-05T17:00:48.561Z,68.30
2018-12-05T17:03:22.498Z,68.40
2018-12-05T17:05:56.555Z,68.50
2018-12-05T17:08:30.255Z,68.40
2018-12-05T17:11:04.292Z,68.40
2018-12-05T17:13:43.495Z,68.30
2018-12-05T17:16:18.359Z,68.30
2018-12-05T17:18:52.288Z,68.40
2018-12-05T17:21:26.546Z,68.50
2018-12-05T17:24:00.198Z,68.50
2018-12-05T17:26:34.049Z,68.50
2018-12-05T17:29:09.257Z,68.80
2018-12-05T17:31:43.558Z,68.90
2018-12-05T17:34:17.442Z,68.90
2018-12-05T17:36:51.553Z,68.80
2018-12-05T17:39:26.435Z,68.90
2018-12-05T17:42:01.537Z,68.90
2018-12-05T17:44:35.518Z,68.90
2018-12-05T17:47:09.534Z,69.20
2018-12-05T17:49:43.725Z,69.20
2018-12-05T17:52:17.649Z,69.30
2018-12-05T17:54:51.297Z,69.20
2018-12-05T17:57:25.269Z,69.20
2018-12-05T17:59:59.172Z,70.20
2018-12-05T18:02:34.277Z,69.40
2018-12-05T18:05:09.203Z,69.50
2018-12-05T18:07:43.560Z,69.60
2018-12-05T18:10:17.400Z,69.80
2018-12-05T18:12:51.612Z,69.80
2018-12-05T18:15:25.559Z,69.90
2018-12-05T18:17:59.506Z,70.50
2018-12-05T18:20:33.399Z,69.90
2018-12-05T18:23:07.732Z,69.90
2018-12-05T18:25:43.832Z,69.90
2018-12-05T18:28:17.591Z,69.90
2018-12-05T18:30:53.370Z,70.20
2018-12-05T18:33:27.860Z,70.30
2018-12-05T18:36:01.751Z,70.30
2018-12-05T18:38:35.947Z,70.30
2018-12-05T18:41:09.933Z,70.50
2018-12-05T18:43:43.903Z,70.60
2018-12-05T18:46:17.825Z,70.60
2018-12-05T18:48:51.814Z,70.60
2018-12-05T18:51:25.707Z,70.70
2018-12-05T18:53:59.905Z,70.80
2018-12-05T18:56:33.662Z,70.90
2018-12-05T18:59:08.811Z,71.70
2018-12-05T19:01:42.824Z,70.90
2018-12-05T19:04:16.818Z,70.90
2018-12-05T19:06:50.871Z,71.00
2018-12-05T19:09:26.957Z,70.90
2018-12-05T19:12:01.171Z,70.90
2018-12-05T19:14:40.021Z,71.60
2018-12-05T19:17:13.919Z,70.80
2018-12-05T19:19:48.080Z,70.90
2018-12-05T19:22:24.469Z,71.00
2018-12-05T19:24:58.909Z,71.00
2018-12-05T19:27:32.712Z,71.20
2018-12-05T19:30:07.275Z,71.30
2018-12-05T19:32:42.343Z,71.20
2018-12-05T19:35:18.006Z,71.50
2018-12-05T19:37:52.003Z,71.50
2018-12-05T19:40:26.254Z,71.50
2018-12-05T19:43:00.038Z,71.40
2018-12-05T19:45:34.480Z,71.40
2018-12-05T19:48:08.327Z,71.60
2018-12-05T19:50:42.337Z,71.50
2018-12-05T19:53:16.197Z,71.40
2018-12-05T19:55:50.006Z,71.40
2018-12-05T19:58:23.786Z,71.70
2018-12-05T20:00:57.844Z,71.70
2018-12-05T20:03:31.802Z,71.50
2018-12-05T20:06:05.715Z,71.60
2018-12-05T20:08:40.430Z,71.70
2018-12-05T20:11:14.324Z,71.80
2018-12-05T20:13:48.133Z,71.90
2018-12-05T20:16:22.591Z,72.00
2018-12-05T20:18:56.167Z,72.10
2018-12-05T20:21:29.883Z,72.40
2018-12-05T20:24:03.926Z,72.40
2018-12-05T20:26:37.954Z,72.50
2018-12-05T20:29:11.979Z,73.20
2018-12-05T20:31:47.339Z,72.50
2018-12-05T20:34:23.706Z,72.70
2018-12-05T20:36:57.780Z,72.60
2018-12-05T20:39:31.797Z,72.50
2018-12-05T20:42:06.476Z,72.50
2018-12-05T20:44:40.421Z,72.40
2018-12-05T20:47:15.038Z,72.60
2018-12-05T20:49:48.934Z,72.60
2018-12-05T20:52:22.831Z,72.70
2018-12-05T20:54:57.703Z,72.90
2018-12-05T20:57:34.240Z,73.00
2018-12-05T21:00:08.081Z,73.10
2018-12-05T21:02:42.274Z,73.90
2018-12-05T21:05:16.553Z,73.10
2018-12-05T21:07:51.575Z,73.00
2018-12-05T21:10:25.287Z,72.80
2018-12-05T21:12:59.415Z,73.00
2018-12-05T21:15:33.526Z,72.90
2018-12-05T21:18:10.304Z,73.00
2018-12-05T21:20:44.521Z,73.30
2018-12-05T21:23:18.100Z,73.20
2018-12-05T21:25:51.948Z,73.10
2018-12-05T21:28:25.797Z,73.20
2018-12-05T21:31:01.433Z,73.30
2018-12-05T21:33:36.048Z,73.10
2018-12-05T21:36:11.342Z,73.00
2018-12-05T21:38:46.068Z,73.00
2018-12-05T21:41:20.788Z,73.00
2018-12-05T21:43:54.610Z,73.10
2018-12-05T21:46:28.630Z,73.20
2018-12-05T21:49:04.164Z,73.20
2018-12-05T21:51:39.763Z,73.30
2018-12-05T21:54:13.427Z,73.20
2018-12-05T21:56:47.359Z,73.20
2018-12-05T21:59:21.130Z,73.30
2018-12-05T22:01:54.635Z,73.40
2018-12-05T22:04:28.688Z,73.30
2018-12-05T22:07:03.462Z,73.40
2018-12-05T22:09:37.294Z,73.40
2018-12-05T22:12:12.230Z,73.40
2018-12-05T22:14:47.309Z,73.50
2018-12-05T22:17:21.273Z,73.50
2018-12-05T22:19:55.195Z,73.50
2018-12-05T22:22:30.217Z,73.70
2018-12-05T22:25:04.191Z,73.50
2018-12-05T22:27:39.071Z,73.50
2018-12-05T22:30:15.886Z,73.70
2018-12-05T22:32:49.851Z,74.70
2018-12-05T22:35:24.095Z,73.80
2018-12-05T22:38:00.041Z,73.80
2018-12-05T22:40:34.949Z,73.80
2018-12-05T22:43:09.108Z,73.90
2018-12-05T22:45:43.115Z,74.20
2018-12-05T22:48:17.731Z,74.20
2018-12-05T22:50:52.212Z,74.20
2018-12-05T22:53:26.439Z,74.20
2018-12-05T22:56:00.165Z,74.20
2018-12-05T22:58:35.230Z,74.30
2018-12-05T23:01:09.322Z,74.30
2018-12-05T23:03:43.055Z,74.70
2018-12-05T23:06:17.981Z,74.90
2018-12-05T23:08:52.584Z,75.00
2018-12-05T23:11:26.604Z,75.10
2018-12-05T23:14:01.963Z,75.20
2018-12-05T23:16:35.902Z,75.30
2018-12-05T23:19:10.216Z,75.40
2018-12-05T23:24:22.539Z,75.60
2018-12-05T23:26:56.352Z,75.60
2018-12-05T23:29:30.299Z,75.50
2018-12-05T23:32:04.389Z,75.70
2018-12-05T23:34:38.261Z,75.80
2018-12-05T23:37:12.501Z,75.70
2018-12-05T23:39:47.658Z,75.80
2018-12-05T23:42:21.525Z,76.60
2018-12-05T23:44:55.697Z,76.00
2018-12-05T23:47:30.471Z,75.90
2018-12-05T23:50:04.627Z,75.90
2018-12-05T23:52:39.548Z,76.10
2018-12-05T23:55:13.784Z,76.10
2018-12-05T23:57:47.898Z,76.10
